Time;durP1;ratioP1;P1;durP2;ratioP2;P2;SDS_P1;SDS_P2;PMS_P1;PMS_P2;Temp;Humidity;BMP_temperature;BMP_pressure;BME280_temperature;BME280_humidity;BME280_pressure;Samples;Min_cycle;Max_cycle;Signal;HPM_P1;HPM_P2
2021/03/29 00:02:14;;;;;;;17.45;7.10;;;11.10;99.90;;;11.40;69.81;102420.69;5074856;28;20051;-71
2021/03/29 00:04:42;;;;;;;17.60;7.10;;;11.20;99.90;;;11.39;70.01;102407.41;5074670;28;20440;-71
2021/03/29 00:07:10;;;;;;;16.23;7.35;;;11.10;99.90;;;11.29;70.12;102403.72;5074943;28;20437;-71
2021/03/29 00:09:39;;;;;;;17.90;7.38;;;11.10;99.90;;;11.40;70.13;102411.84;5074743;28;20110;-71
2021/03/29 00:12:09;;;;;;;13.88;7.32;;;11.10;99.90;;;11.40;70.00;102419.81;5074444;28;20394;-71
2021/03/29 00:14:38;;;;;;;17.33;7.38;;;11.10;99.90;;;11.41;70.09;102433.06;5074639;28;20056;-71
2021/03/29 00:17:07;;;;;;;14.88;6.70;;;11.10;99.90;;;11.39;70.12;102421.56;5074404;28;20057;-71
2021/03/29 00:19:37;;;;;;;13.65;6.63;;;11.10;99.90;;;11.15;70.09;102391.97;5073397;28;20044;-71
2021/03/29 00:22:05;;;;;;;21.63;7.78;;;11.10;99.90;;;11.35;70.20;102418.81;5074613;28;20086;-72
2021/03/29 00:24:33;;;;;;;20.50;7.40;;;11.00;99.90;;;11.37;70.29;102418.00;5074439;28;20464;-72
2021/03/29 00:27:03;;;;;;;14.73;7.18;;;11.00;99.90;;;11.34;70.13;102412.63;5074323;28;20047;-71
2021/03/29 00:29:30;;;;;;;17.77;7.47;;;11.10;99.90;;;11.41;70.21;102426.88;5074778;28;20045;-71
2021/03/29 00:31:59;;;;;;;16.27;7.82;;;11.10;99.90;;;11.44;69.96;102414.56;5073124;28;20060;-71
2021/03/29 00:34:28;;;;;;;14.93;6.32;;;11.10;99.90;;;11.33;70.26;102405.56;5074444;28;20040;-71
2021/03/29 00:36:56;;;;;;;19.83;7.70;;;11.10;99.90;;;11.33;70.30;102402.91;5074228;28;20090;-72
2021/03/29 00:39:24;;;;;;;16.77;7.72;;;11.00;99.90;;;11.33;70.39;102408.19;5074200;28;20041;-71
2021/03/29 00:41:52;;;;;;;21.17;7.47;;;11.00;99.90;;;11.25;70.43;102407.16;5073984;28;20101;-71
2021/03/29 00:44:21;;;;;;;18.15;7.63;;;11.00;99.90;;;11.29;70.55;102406.34;5072640;28;20088;-71
2021/03/29 00:46:49;;;;;;;15.18;7.43;;;11.00;99.90;;;11.27;70.46;102407.19;5073980;28;20036;-71
2021/03/29 00:49:17;;;;;;;24.65;8.43;;;11.00;99.90;;;11.32;70.09;102413.47;5073974;28;20123;-71
2021/03/29 00:51:48;;;;;;;16.83;7.00;;;11.00;99.90;;;11.33;70.22;102418.78;5072551;28;20072;-71
2021/03/29 00:54:16;;;;;;;20.95;8.13;;;11.00;99.90;;;11.30;70.27;102423.16;5073738;28;20044;-72
2021/03/29 00:56:44;;;;;;;14.65;7.88;;;11.00;99.90;;;11.26;70.34;102430.16;5073619;28;20049;-71
2021/03/29 00:59:12;;;;;;;16.30;8.60;;;11.00;99.90;;;11.24;70.31;102429.25;5072327;28;20055;-71
2021/03/29 01:01:44;;;;;;;18.65;8.07;;;11.00;99.90;;;11.27;70.38;102428.38;5073736;28;20136;-71
2021/03/29 01:04:12;;;;;;;16.23;7.70;;;10.90;99.90;;;11.29;70.27;102416.06;5072202;28;20466;-70
2021/03/29 01:06:43;;;;;;;20.73;7.65;;;11.00;99.90;;;10.71;70.31;102313.53;5072340;28;20478;-71
2021/03/29 01:09:16;;;;;;;16.48;8.02;;;11.00;99.90;;;11.30;70.10;102407.25;5073481;28;20041;-71
2021/03/29 01:11:49;;;;;;;16.27;8.35;;;11.00;99.90;;;11.32;70.02;102424.97;5073474;28;20132;-71
2021/03/29 01:14:20;;;;;;;18.70;8.25;;;11.00;99.90;;;11.23;69.99;102427.44;5073477;28;20048;-71
2021/03/29 01:16:51;;;;;;;16.92;7.75;;;11.00;99.90;;;11.31;70.08;102425.81;5073455;28;20074;-71
2021/03/29 01:19:32;;;;;;;17.00;7.55;;;11.00;99.90;;;11.27;70.29;102431.03;5073288;28;20060;-71
2021/03/29 01:22:04;;;;;;;20.75;8.52;;;11.00;99.90;;;11.29;70.18;102432.84;5073485;28;20048;-71
2021/03/29 01:24:45;;;;;;;18.08;9.00;;;11.00;99.90;;;11.27;70.29;102425.72;5073340;28;20130;-71
2021/03/29 01:27:18;;;;;;;19.20;8.50;;;11.00;99.90;;;11.25;70.13;102436.31;5073216;28;20037;-71
2021/03/29 01:29:47;;;;;;;16.30;9.30;;;11.00;99.90;;;11.26;70.42;102427.50;5088786;28;20071;-71
2021/03/29 01:32:15;;;;;;;17.45;8.43;;;11.00;99.90;;;11.20;70.30;102427.41;5073032;28;20076;-71
2021/03/29 01:34:44;;;;;;;15.68;8.45;;;10.90;99.90;;;11.22;70.54;102424.78;5073248;28;20048;-71
2021/03/29 01:37:12;;;;;;;16.85;9.18;;;10.90;99.90;;;11.20;70.63;102430.06;5073053;28;20052;-71
2021/03/29 01:39:43;;;;;;;18.77;9.30;;;10.90;99.90;;;11.14;70.78;102431.69;5072978;28;20057;-70
2021/03/29 01:42:12;;;;;;;15.18;8.25;;;10.90;99.90;;;11.17;70.53;102432.63;5072815;28;20040;-71
2021/03/29 01:44:42;;;;;;;20.58;10.10;;;10.90;99.90;;;11.20;70.63;102432.69;5072827;28;20041;-71
2021/03/29 01:47:10;;;;;;;20.08;9.23;;;10.90;99.90;;;11.17;70.61;102432.63;5072919;28;20047;-71
2021/03/29 01:49:38;;;;;;;21.42;9.07;;;10.80;99.90;;;11.14;70.51;102429.94;5073224;28;20036;-71
2021/03/29 01:52:07;;;;;;;21.38;8.73;;;10.90;99.90;;;11.14;70.74;102445.81;5072901;28;20053;-71
2021/03/29 01:54:35;;;;;;;17.80;8.95;;;10.90;99.90;;;11.15;70.46;102441.44;5072903;28;20047;-71
2021/03/29 01:57:05;;;;;;;19.27;9.57;;;10.90;99.90;;;11.08;70.59;102439.50;5072684;28;20055;-71
2021/03/29 01:59:34;;;;;;;22.95;9.30;;;10.80;99.90;;;11.10;70.75;102440.44;5071449;28;20053;-71
2021/03/29 02:02:02;;;;;;;20.35;8.90;;;10.80;99.90;;;10.99;70.72;102419.06;5072786;28;20056;-71
2021/03/29 02:04:30;;;;;;;17.92;9.13;;;10.80;99.90;;;11.10;70.83;102443.09;5072795;28;20037;-71
2021/03/29 02:06:59;;;;;;;18.63;9.77;;;10.80;99.90;;;11.14;70.61;102443.19;5072540;28;20137;-71
2021/03/29 02:09:26;;;;;;;17.95;9.45;;;10.80;99.90;;;11.12;70.96;102436.97;5072631;28;20045;-71
2021/03/29 02:11:54;;;;;;;19.20;9.88;;;10.80;99.90;;;11.10;71.17;102436.03;5071231;28;20559;-71
2021/03/29 02:14:27;;;;;;;21.25;9.45;;;10.80;99.90;;;11.09;71.06;102434.22;5072940;28;20053;-71
2021/03/29 02:16:57;;;;;;;21.77;10.32;;;10.80;99.90;;;11.10;71.19;102451.03;5072313;28;20110;-71
2021/03/29 02:19:25;;;;;;;18.08;9.80;;;10.80;99.90;;;11.04;71.19;102449.16;5072660;28;20043;-71
2021/03/29 02:21:55;;;;;;;20.45;9.88;;;10.80;99.90;;;11.05;70.91;102436.81;5072522;28;20056;-71
2021/03/29 02:24:23;;;;;;;23.35;9.55;;;10.80;99.90;;;11.06;71.29;102439.50;5071407;28;20078;-71
2021/03/29 02:26:50;;;;;;;22.27;9.18;;;10.70;99.90;;;11.04;71.28;102438.56;5071312;28;20457;-72
2021/03/29 02:29:19;;;;;;;18.02;9.00;;;10.70;99.90;;;11.08;71.35;102439.50;5072641;28;20036;-71
2021/03/29 02:31:49;;;;;;;16.45;9.57;;;10.70;99.90;;;10.96;71.49;102434.88;5072403;28;20061;-71
2021/03/29 02:34:18;;;;;;;19.30;9.00;;;10.70;99.90;;;10.95;71.80;102435.75;5072419;28;20044;-71
2021/03/29 02:36:45;;;;;;;19.85;9.50;;;10.70;99.90;;;10.96;71.77;102436.63;5072310;28;20377;-72
2021/03/29 02:39:13;;;;;;;21.27;9.02;;;10.70;99.90;;;10.91;71.92;102425.97;5071216;28;20109;-71
2021/03/29 02:41:41;;;;;;;20.75;9.40;;;10.60;99.90;;;10.85;72.24;102432.03;5072334;28;20515;-71
2021/03/29 02:44:12;;;;;;;19.40;9.05;;;10.60;99.90;;;10.92;72.21;102432.16;5072431;28;20123;-71
2021/03/29 02:46:40;;;;;;;20.02;10.05;;;10.60;99.90;;;10.88;72.23;102428.53;5072216;28;20040;-71
2021/03/29 02:49:08;;;;;;;16.73;9.30;;;10.60;99.90;;;10.79;72.27;102420.44;5072407;28;20063;-71
2021/03/29 02:51:43;;;;;;;18.08;9.45;;;10.60;99.90;;;10.83;72.56;102427.56;5072280;28;20403;-71
2021/03/29 02:54:11;;;;;;;22.90;9.27;;;10.60;99.90;;;10.77;72.75;102428.34;5072332;28;20448;-71
2021/03/29 02:56:43;;;;;;;21.05;9.38;;;10.50;99.90;;;10.70;72.68;102423.78;5072113;28;20052;-71
2021/03/29 02:59:14;;;;;;;17.02;8.90;;;10.50;99.90;;;10.71;72.93;102425.56;5072338;28;20047;-71
2021/03/29 03:01:43;;;;;;;20.90;8.88;;;10.40;99.90;;;10.76;72.98;102437.13;5072039;28;20051;-71
2021/03/29 03:04:14;;;;;;;21.02;9.82;;;10.40;99.90;;;10.81;72.94;102422.25;5072171;28;20041;-71
2021/03/29 03:06:42;;;;;;;;;;;10.50;99.90;;;10.80;73.10;102422.22;5072588;28;20098;-71
2021/03/29 03:09:12;;;;;;;24.02;10.45;;;10.50;99.90;;;10.73;73.17;102417.66;5072289;28;19927;-71
2021/03/29 03:11:44;;;;;;;17.80;8.55;;;10.40;99.90;;;10.65;73.47;102408.66;5071988;28;20505;-71
2021/03/29 03:14:11;;;;;;;20.75;9.50;;;10.40;99.90;;;10.63;73.60;102416.59;5070703;28;20052;-71
2021/03/29 03:16:39;;;;;;;17.08;8.70;;;10.40;99.90;;;10.65;73.66;102409.56;5072148;28;20048;-71
2021/03/29 03:19:08;;;;;;;20.55;8.55;;;10.40;99.90;;;10.67;73.74;102421.06;5072008;28;20113;-71
2021/03/29 03:21:37;;;;;;;18.98;9.35;;;10.40;99.90;;;10.58;73.40;102388.25;5072128;28;20132;-72
2021/03/29 03:24:07;;;;;;;16.83;9.38;;;10.40;99.90;;;10.62;73.71;102403.31;5071986;28;20045;-71
2021/03/29 03:26:35;;;;;;;20.13;8.77;;;10.40;99.90;;;10.58;74.06;102404.13;5070767;28;20059;-71
2021/03/29 03:29:03;;;;;;;21.70;8.25;;;10.40;99.90;;;10.67;73.93;102414.88;5073101;28;20086;-71
2021/03/29 03:31:34;;;;;;;20.67;8.48;;;10.40;99.90;;;10.66;73.75;102408.72;5075786;28;20045;-71
2021/03/29 03:34:02;;;;;;;21.85;9.07;;;10.40;99.90;;;10.68;73.98;102414.91;5075595;28;20122;-71
2021/03/29 03:36:32;;;;;;;18.48;8.88;;;10.40;99.90;;;10.64;73.91;102412.19;5075362;28;20083;-71
2021/03/29 03:39:00;;;;;;;21.83;8.53;;;10.40;99.90;;;10.65;74.03;102420.16;5075318;28;20055;-71
2021/03/29 03:41:32;;;;;;;21.60;8.63;;;10.40;99.90;;;10.60;74.26;102415.63;5075065;28;20082;-71
2021/03/29 03:44:02;;;;;;;17.67;7.95;;;10.30;99.90;;;10.60;74.34;102413.88;5075398;28;20048;-71
2021/03/29 03:46:36;;;;;;;16.15;7.93;;;10.30;99.90;;;10.60;74.36;102421.81;5075218;28;20040;-71
2021/03/29 03:49:07;;;;;;;19.65;8.18;;;10.30;99.90;;;10.48;74.38;102405.69;5075143;28;20401;-71
2021/03/29 03:51:35;;;;;;;25.42;8.95;;;10.30;99.90;;;10.55;74.50;102409.38;5075142;28;20521;-71
2021/03/29 03:54:04;;;;;;;19.60;8.88;;;10.30;99.90;;;10.59;74.80;102424.41;5074891;28;20040;-70
2021/03/29 03:56:33;;;;;;;22.05;9.50;;;10.30;99.90;;;10.52;74.54;102418.13;5074930;28;20432;-71
2021/03/29 03:59:03;;;;;;;20.40;7.82;;;10.30;99.90;;;10.60;74.72;102429.75;5074955;28;20045;-71
2021/03/29 04:01:42;;;;;;;17.80;9.02;;;10.30;99.90;;;10.57;74.76;102423.50;5074928;28;20048;-71
2021/03/29 04:04:09;;;;;;;15.82;8.02;;;10.30;99.90;;;10.61;75.01;102435.94;5074866;28;20048;-71
2021/03/29 04:06:37;;;;;;;18.95;8.05;;;10.30;99.90;;;10.59;75.23;102427.06;5074522;28;20120;-83
2021/03/29 04:09:04;;;;;;;19.00;7.95;;;10.30;99.90;;;10.60;75.13;102429.75;5073578;28;20067;-75
2021/03/29 04:11:35;;;;;;;19.73;7.78;;;10.30;99.90;;;10.69;75.12;102431.69;5074713;28;20041;-70
2021/03/29 04:14:02;;;;;;;;;;;10.30;99.90;;;10.67;75.00;102428.13;5075023;28;20056;-71
2021/03/29 04:16:30;;;;;;;17.95;7.97;;;10.40;99.90;;;10.65;75.08;102428.09;5073295;28;20340;-69
2021/03/29 04:18:57;;;;;;;20.52;7.88;;;10.30;99.90;;;10.62;75.56;102432.44;5074381;28;20051;-69
2021/03/29 04:21:25;;;;;;;20.27;8.05;;;10.30;99.90;;;10.63;75.61;102431.56;5074484;28;20409;-70
2021/03/29 04:23:52;;;;;;;15.60;7.30;;;10.30;99.90;;;10.70;75.16;102446.72;5074542;28;20100;-69
2021/03/29 04:26:19;;;;;;;21.42;7.68;;;10.40;99.90;;;10.62;74.98;102405.97;5074231;28;20040;-71
2021/03/29 04:28:47;;;;;;;23.20;8.65;;;10.50;99.90;;;10.82;74.92;102449.59;5073291;28;20048;-70
2021/03/29 04:31:17;;;;;;;15.80;7.88;;;10.50;99.90;;;10.83;74.79;102435.50;5074356;28;20040;-70
2021/03/29 04:33:45;;;;;;;16.98;7.07;;;10.50;99.90;;;10.80;75.23;102446.91;5074028;28;20147;-71
2021/03/29 04:36:14;;;;;;;17.13;7.43;;;10.50;99.90;;;10.61;75.11;102398.88;5074344;28;20051;-74
2021/03/29 04:38:41;;;;;;;24.13;8.13;;;10.50;99.90;;;10.66;75.31;102405.19;5074269;28;20524;-72
2021/03/29 04:41:09;;;;;;;20.23;7.28;;;10.40;99.90;;;10.71;75.51;102435.25;5073695;28;20045;-72
2021/03/29 04:43:36;;;;;;;18.83;8.02;;;10.40;99.90;;;10.69;75.70;102427.28;5074046;28;20040;-72
2021/03/29 04:46:04;;;;;;;16.27;7.53;;;10.40;99.90;;;10.77;75.69;102436.28;5073886;28;20045;-72
2021/03/29 04:48:32;;;;;;;18.67;7.75;;;10.40;99.90;;;10.71;75.41;102432.63;5074087;28;20047;-72
2021/03/29 04:50:59;;;;;;;20.55;7.65;;;10.40;99.90;;;10.65;75.66;102440.44;5074009;28;20040;-71
2021/03/29 04:53:26;;;;;;;18.13;7.35;;;10.40;99.90;;;10.74;75.58;102443.28;5073844;28;20048;-72
2021/03/29 04:55:54;;;;;;;23.80;9.75;;;10.40;99.90;;;10.69;75.49;102442.28;5073861;28;20042;-72
2021/03/29 04:58:22;;;;;;;21.10;7.97;;;10.40;99.90;;;10.72;75.72;102442.34;5073772;28;20093;-72
2021/03/29 05:00:49;;;;;;;19.90;8.07;;;10.40;99.90;;;10.65;75.82;102445.72;5072264;28;20052;-72
2021/03/29 05:03:17;;;;;;;19.55;7.20;;;10.30;99.90;;;10.62;76.01;102443.94;5073668;28;20045;-72
2021/03/29 05:05:45;;;;;;;17.38;7.95;;;10.30;99.90;;;10.54;76.17;102447.25;5073552;28;20050;-72
2021/03/29 05:08:13;;;;;;;23.02;8.30;;;10.30;99.90;;;10.62;76.02;102456.25;5073395;28;20521;-72
2021/03/29 05:10:41;;;;;;;15.95;7.13;;;10.30;99.90;;;10.59;76.16;102456.16;5073361;28;20520;-72
2021/03/29 05:13:09;;;;;;;19.80;7.82;;;10.30;99.90;;;10.63;76.00;102448.34;5073216;28;20102;-72
2021/03/29 05:15:36;;;;;;;19.52;7.97;;;10.30;99.90;;;10.65;76.03;102456.31;5073386;28;20040;-72
2021/03/29 05:18:04;;;;;;;19.38;8.15;;;10.30;99.90;;;10.63;76.35;102460.66;5073492;28;20036;-72
2021/03/29 05:20:32;;;;;;;18.52;8.75;;;10.30;99.90;;;10.62;76.54;102457.16;5071952;28;20052;-72
2021/03/29 05:23:00;;;;;;;24.15;9.05;;;10.30;99.90;;;10.56;76.68;102466.72;5073294;28;20178;-72
2021/03/29 05:25:27;;;;;;;21.15;8.75;;;10.20;99.90;;;10.55;76.83;102472.88;5073081;28;20447;-72
2021/03/29 05:27:54;;;;;;;23.05;8.65;;;10.30;99.90;;;10.66;76.70;102477.53;5072923;28;20090;-72
2021/03/29 05:30:23;;;;;;;21.23;8.85;;;10.30;99.90;;;10.60;77.23;102474.75;5073262;28;20448;-72
2021/03/29 05:32:50;;;;;;;17.35;8.05;;;10.30;99.90;;;10.54;77.44;102477.25;5073219;28;20040;-72
2021/03/29 05:35:17;;;;;;;19.35;8.10;;;10.30;99.90;;;10.49;78.20;102484.19;5072974;28;20049;-72
2021/03/29 05:37:50;;;;;;;22.73;8.32;;;10.20;99.90;;;10.50;77.95;102477.16;5073044;28;20041;-72
2021/03/29 05:40:18;;;;;;;20.70;8.60;;;10.20;99.90;;;10.54;78.24;102476.38;5072651;28;20064;-72
2021/03/29 05:42:46;;;;;;;23.48;8.75;;;10.20;99.90;;;10.54;78.20;102471.97;5073139;28;20494;-72
2021/03/29 05:45:14;;;;;;;20.25;8.95;;;10.30;99.90;;;10.58;78.33;102478.22;5072658;28;20119;-72
2021/03/29 05:47:42;;;;;;;24.45;8.15;;;10.30;99.90;;;10.59;78.24;102485.28;5072574;28;20452;-72
2021/03/29 05:50:12;;;;;;;23.45;8.75;;;10.30;99.90;;;10.61;78.34;102488.84;5072716;28;20048;-72
2021/03/29 05:52:40;;;;;;;22.05;8.95;;;10.30;99.90;;;10.48;78.29;102455.97;5072165;28;20490;-72
2021/03/29 05:55:16;;;;;;;22.42;8.98;;;10.30;99.90;;;10.59;78.50;102494.13;5072632;28;20089;-72
2021/03/29 05:58:04;;;;;;;26.70;9.25;;;10.30;99.90;;;10.61;78.81;102496.78;5072468;28;20044;-72
2021/03/29 06:00:39;;;;;;;25.70;9.57;;;10.30;99.90;;;10.71;78.73;102504.06;5072670;28;20044;-72
2021/03/29 06:03:24;;;;;;;19.90;8.57;;;10.40;99.90;;;10.62;78.68;102480.06;5072897;28;20440;-72
2021/03/29 06:05:55;;;;;;;29.75;8.40;;;10.40;99.90;;;10.97;78.60;102501.97;5072614;28;20064;-72
2021/03/29 06:08:23;;;;;;;21.83;9.88;;;10.60;99.90;;;11.02;78.23;102501.19;5072860;28;20044;-71
2021/03/29 06:10:54;;;;;;;24.40;9.07;;;10.70;99.90;;;11.08;77.63;102479.22;5072546;28;20504;-71
2021/03/29 06:13:26;;;;;;;23.90;9.02;;;10.90;99.90;;;11.35;77.15;102501.84;5073022;28;20405;-71
2021/03/29 06:16:08;;;;;;;22.52;8.63;;;11.00;99.90;;;10.88;76.76;102383.53;5072506;28;20106;-72
2021/03/29 06:18:38;;;;;;;25.05;9.02;;;11.20;99.90;;;11.77;75.94;102515.00;5072827;28;20453;-71
2021/03/29 06:21:10;;;;;;;19.35;8.73;;;11.40;99.90;;;11.89;75.71;102509.00;5072583;28;20052;-72
2021/03/29 06:23:40;;;;;;;19.40;8.00;;;11.50;99.90;;;11.98;75.20;102507.38;5072418;28;20052;-72
2021/03/29 06:26:20;;;;;;;;;;;11.60;99.90;;;11.98;74.81;102520.66;5071813;28;20080;-72
2021/03/29 06:28:48;;;;;;;20.92;8.05;;;11.70;99.90;;;12.05;74.88;102519.00;5071315;28;20370;-72
2021/03/29 06:31:28;;;;;;;22.77;8.23;;;11.80;99.90;;;12.24;74.25;102516.66;5072340;28;20040;-72
2021/03/29 06:33:57;;;;;;;25.50;8.60;;;11.90;99.90;;;12.37;73.76;102518.63;5072351;28;20048;-72
2021/03/29 06:36:35;;;;;;;21.23;8.13;;;12.10;99.90;;;12.47;73.50;102516.97;5072268;28;20088;-72
2021/03/29 06:39:16;;;;;;;18.52;8.10;;;12.10;99.90;;;12.52;73.16;102529.44;5072708;28;20502;-72
2021/03/29 06:41:56;;;;;;;23.23;7.90;;;12.20;99.90;;;12.73;73.02;102518.25;5072572;28;20053;-72
2021/03/29 06:44:25;;;;;;;20.15;7.63;;;12.40;99.90;;;12.94;72.15;102530.91;5072203;28;20414;-72
2021/03/29 06:47:06;;;;;;;23.17;8.40;;;12.60;99.90;;;13.12;71.72;102532.06;5070721;28;20486;-72
2021/03/29 06:49:43;;;;;;;22.00;8.43;;;12.80;99.90;;;13.21;71.21;102533.94;5072449;28;20048;-72
2021/03/29 06:52:26;;;;;;;21.38;8.07;;;12.90;99.90;;;13.41;71.02;102541.22;5072180;28;20044;-72
2021/03/29 06:54:54;;;;;;;24.92;7.85;;;13.00;99.90;;;13.59;70.13;102546.75;5072265;28;20041;-72
2021/03/29 06:57:31;;;;;;;13.52;6.82;;;13.30;99.90;;;13.86;69.16;102539.94;5070959;28;20498;-72
2021/03/29 06:59:59;;;;;;;18.30;8.00;;;13.50;99.90;;;13.80;68.46;102540.75;5072485;28;20036;-72
2021/03/29 07:02:40;;;;;;;18.80;7.95;;;13.60;99.90;;;14.09;67.67;102555.19;5072173;28;20037;-72
2021/03/29 07:05:10;;;;;;;20.35;7.43;;;13.70;99.90;;;14.39;67.45;102557.25;5075895;28;20505;-72
2021/03/29 07:07:39;;;;;;;19.25;8.10;;;14.00;99.90;;;14.55;66.09;102567.13;5075625;28;20037;-72
2021/03/29 07:10:09;;;;;;;20.17;7.45;;;14.20;99.90;;;14.61;66.10;102576.91;5075662;28;20505;-72
2021/03/29 07:12:46;;;;;;;18.27;7.53;;;14.30;99.90;;;14.67;65.43;102575.19;5075795;28;20070;-71
2021/03/29 07:15:15;;;;;;;18.65;8.25;;;14.30;99.90;;;14.70;65.08;102574.31;5075554;28;20489;-72
2021/03/29 07:17:45;;;;;;;22.70;8.68;;;14.40;99.90;;;14.65;65.00;102582.28;5075659;28;20048;-72
2021/03/29 07:20:15;;;;;;;19.38;8.38;;;14.40;99.90;;;14.93;64.92;102577.97;5075540;28;20398;-72
2021/03/29 07:22:43;;;;;;;18.92;8.20;;;14.50;99.90;;;14.90;64.80;102578.88;5075635;28;20044;-72
2021/03/29 07:25:15;;;;;;;21.20;8.65;;;14.60;99.90;;;14.81;64.55;102549.50;5075519;28;20063;-72
2021/03/29 07:27:47;;;;;;;19.45;7.75;;;14.70;99.90;;;14.85;64.46;102585.03;5075468;28;20078;-73
2021/03/29 07:30:17;;;;;;;18.73;7.38;;;14.60;99.90;;;14.75;64.95;102585.91;5075445;28;20044;-73
2021/03/29 07:32:54;;;;;;;22.30;8.07;;;14.50;99.90;;;14.81;64.93;102568.16;5075551;28;20040;-72
2021/03/29 07:35:22;;;;;;;18.13;7.55;;;14.60;99.90;;;14.91;64.65;102591.31;5075326;28;20490;-72
2021/03/29 07:37:57;;;;;;;23.50;7.32;;;14.60;99.90;;;14.86;64.76;102594.84;5074984;28;20048;-72
2021/03/29 07:40:41;;;;;;;18.70;7.45;;;14.50;99.90;;;14.95;64.72;102595.78;5073987;28;20135;-72
2021/03/29 07:43:13;;;;;;;23.65;7.90;;;14.60;99.90;;;14.93;64.22;102575.31;5075220;28;20134;-71
2021/03/29 07:45:51;;;;;;;22.75;8.38;;;14.70;99.90;;;15.07;64.23;102595.84;5075258;28;20141;-72
2021/03/29 07:48:38;;;;;;;22.20;8.40;;;14.80;99.90;;;14.97;64.50;102602.00;5075035;28;20075;-72
2021/03/29 07:51:10;;;;;;;18.73;7.68;;;14.70;99.90;;;15.23;63.85;102618.13;5075176;28;20060;-72
2021/03/29 07:53:45;;;;;;;20.85;7.80;;;14.80;99.90;;;15.53;63.45;102615.59;5075238;28;20056;-72
2021/03/29 07:56:41;;;;;;;18.83;7.53;;;15.10;99.90;;;15.44;62.89;102614.69;5075148;28;20049;-72
2021/03/29 07:59:12;;;;;;;27.15;8.55;;;15.20;99.90;;;15.56;62.52;102628.06;5074875;28;20071;-72
2021/03/29 08:01:58;;;;;;;16.58;7.20;;;15.20;99.90;;;15.71;62.26;102641.47;5074758;28;20055;-72
2021/03/29 08:04:59;;;;;;;23.23;8.35;;;15.50;99.90;;;14.98;62.32;102533.63;5074755;28;20047;-72
2021/03/29 08:07:38;;;;;;;;;;;15.30;99.90;;;15.46;62.57;102616.50;5075185;28;20036;-72
2021/03/29 08:10:08;;;;;;;18.58;7.10;;;15.30;99.90;;;15.62;62.18;102642.31;5073466;28;19920;-72
2021/03/29 08:12:36;;;;;;;19.10;7.50;;;15.30;99.90;;;15.59;62.36;102641.41;5074589;28;20128;-72
2021/03/29 08:15:06;;;;;;;21.88;7.72;;;15.30;99.90;;;15.43;62.82;102616.47;5073934;28;20440;-72
2021/03/29 08:17:48;;;;;;;20.50;7.88;;;15.20;99.90;;;15.79;62.65;102647.72;5074802;28;20044;-73
2021/03/29 08:20:43;;;;;;;26.15;8.88;;;15.40;99.90;;;15.66;62.40;102643.22;5074470;28;20490;-72
2021/03/29 08:23:34;;;;;;;19.83;7.80;;;15.40;99.90;;;15.63;62.29;102657.44;5073281;28;20498;-72
2021/03/29 08:26:21;;;;;;;20.45;6.65;;;15.40;99.90;;;15.62;62.42;102650.31;5074390;28;20072;-72
2021/03/29 08:29:37;;;;;;;20.42;8.65;;;15.40;99.90;;;15.72;62.28;102648.56;5073530;28;20076;-72
2021/03/29 08:32:11;;;;;;;23.23;7.90;;;15.40;99.90;;;15.87;62.59;102656.63;5052029;28;20048;-72
2021/03/29 08:34:54;;;;;;;17.27;7.13;;;15.50;99.90;;;15.73;62.11;102659.25;5072659;28;20060;-71
2021/03/29 08:37:28;;;;;;;17.60;7.72;;;15.50;99.90;;;15.68;62.22;102649.47;5074191;28;20052;-72
2021/03/29 08:39:58;;;;;;;25.48;8.65;;;15.40;99.90;;;16.11;62.24;102659.34;5074152;28;20047;-72
2021/03/29 08:42:30;;;;;;;21.77;7.45;;;15.70;99.90;;;16.35;60.98;102653.13;5073915;28;20059;-72
2021/03/29 08:44:59;;;;;;;18.33;8.20;;;16.00;99.90;;;16.14;60.82;102659.34;5072938;28;20049;-72
2021/03/29 08:47:28;;;;;;;17.50;7.38;;;15.90;99.90;;;16.03;61.23;102670.00;5073614;28;20048;-72
2021/03/29 08:49:57;;;;;;;20.83;7.30;;;15.80;99.90;;;16.20;61.05;102675.41;5073774;28;20233;-72
2021/03/29 08:52:26;;;;;;;21.20;8.52;;;15.90;99.90;;;16.32;60.72;102679.84;5072733;28;20079;-72
2021/03/29 08:54:57;;;;;;;19.92;8.93;;;16.00;99.90;;;16.50;60.93;102671.88;5073992;28;20098;-72
2021/03/29 08:57:28;;;;;;;22.00;8.05;;;16.20;99.90;;;16.48;60.36;102679.88;5073876;28;20041;-71
2021/03/29 08:59:58;;;;;;;18.75;7.25;;;16.20;99.90;;;16.65;59.97;102680.78;5072325;28;20063;-71
2021/03/29 09:02:28;;;;;;;20.15;7.75;;;16.30;99.90;;;16.83;59.63;102688.78;5073504;28;20047;-72
2021/03/29 09:05:00;;;;;;;20.45;7.50;;;16.50;99.90;;;16.78;59.30;102692.38;5074197;28;20068;-72
2021/03/29 09:07:31;;;;;;;19.83;7.00;;;16.50;99.90;;;16.75;59.26;102700.38;5073637;28;20456;-72
2021/03/29 09:09:59;;;;;;;21.13;7.60;;;16.50;99.90;;;17.00;59.12;102711.03;5073495;28;20440;-71
2021/03/29 09:12:30;;;;;;;20.27;7.95;;;16.70;99.90;;;17.01;58.53;102714.63;5073462;28;20442;-72
2021/03/29 09:15:00;;;;;;;24.23;7.55;;;16.70;99.90;;;17.27;57.86;102718.13;5071976;28;20053;-72
2021/03/29 09:17:31;;;;;;;17.38;7.38;;;17.00;99.90;;;17.32;57.54;102718.13;5071852;28;20520;-71
2021/03/29 09:20:01;;;;;;;19.20;7.40;;;17.00;99.90;;;17.68;57.38;102728.72;5072229;28;20041;-72
2021/03/29 09:22:35;;;;;;;22.42;7.80;;;17.30;99.90;;;17.66;57.52;102730.53;5073153;28;20098;-72
2021/03/29 09:25:06;;;;;;;21.80;6.90;;;17.30;99.90;;;17.67;57.63;102724.28;5072062;28;20158;-72
2021/03/29 09:27:38;;;;;;;20.60;7.15;;;17.30;99.90;;;17.62;56.98;102726.97;5072135;28;20119;-72
2021/03/29 09:30:11;;;;;;;19.42;6.65;;;17.40;99.90;;;17.63;56.37;102710.03;5073223;28;20362;-72
2021/03/29 09:32:45;;;;;;;18.83;7.05;;;17.50;99.90;;;17.77;55.89;102744.75;5071864;28;20053;-72
2021/03/29 09:35:13;;;;;;;15.48;6.55;;;17.40;99.90;;;17.93;55.54;102747.38;5073246;28;20044;-72
2021/03/29 09:37:48;;;;;;;14.20;6.30;;;17.60;99.90;;;17.80;55.61;102742.97;5072847;28;20551;-72
2021/03/29 09:40:19;;;;;;;19.98;7.63;;;17.50;99.90;;;17.47;55.96;102740.38;5072916;28;20040;-72
2021/03/29 09:42:52;;;;;;;19.67;7.63;;;17.20;99.90;;;17.48;55.83;102746.63;5071841;28;20393;-73
2021/03/29 09:45:25;;;;;;;19.45;7.20;;;17.20;99.90;;;17.39;56.34;102749.31;5072970;28;20040;-72
2021/03/29 09:48:05;;;;;;;15.50;7.00;;;17.10;99.90;;;17.29;55.88;102736.84;5071397;28;20051;-72
2021/03/29 09:50:35;;;;;;;18.73;7.45;;;17.00;99.90;;;17.23;56.04;102740.41;5072699;28;20036;-72
2021/03/29 09:53:16;;;;;;;21.55;7.28;;;17.00;99.90;;;17.26;56.35;102747.56;5071712;28;20102;-72
2021/03/29 09:55:48;;;;;;;18.15;7.35;;;16.90;99.90;;;17.31;56.44;102745.75;5071684;28;20139;-73
2021/03/29 09:58:27;;;;;;;16.35;7.55;;;17.00;99.90;;;17.23;56.26;102752.94;5072989;28;20067;-72
2021/03/29 10:00:57;;;;;;;24.95;8.68;;;17.00;99.90;;;17.39;57.46;102750.19;5072894;28;20040;-72
2021/03/29 10:03:53;;;;;;;16.25;7.25;;;17.00;99.90;;;17.44;56.28;102761.78;5072732;28;20040;-72
2021/03/29 10:06:22;;;;;;;18.60;8.15;;;17.10;99.90;;;17.58;57.22;102765.34;5072777;28;20040;-72
2021/03/29 10:08:58;;;;;;;19.42;7.53;;;17.20;99.90;;;17.44;56.35;102764.44;5072517;28;20041;-72
2021/03/29 10:11:27;;;;;;;19.55;7.75;;;17.20;99.90;;;17.51;55.87;102770.72;5072198;28;20409;-72
2021/03/29 10:14:06;;;;;;;19.15;7.57;;;17.20;99.90;;;17.55;55.44;102761.78;5072232;28;20052;-72
2021/03/29 10:16:33;;;;;;;21.15;8.27;;;17.30;99.90;;;17.73;56.51;102759.06;5072449;28;20543;-71
2021/03/29 10:19:12;;;;;;;18.83;8.65;;;17.40;99.90;;;17.70;55.85;102737.66;5072525;28;20041;-71
2021/03/29 10:22:07;;;;;;;21.80;8.65;;;17.60;99.90;;;17.94;55.23;102767.03;5072309;28;20430;-72
2021/03/29 10:24:37;;;;;;;21.55;8.25;;;17.70;99.90;;;18.22;55.56;102776.69;5072336;28;20417;-72
2021/03/29 10:27:07;;;;;;;23.33;8.80;;;17.90;99.90;;;18.33;54.28;102769.47;5088188;28;20049;-71